Time;durP1;ratioP1;P1;durP2;ratioP2;P2;SDS_P1;SDS_P2;PMS_P1;PMS_P2;Temp;Humidity;BMP_temperature;BMP_pressure;BME280_temperature;BME280_humidity;BME280_pressure;Samples;Min_cycle;Max_cycle;Signal;HPM_P1;HPM_P2
2021/06/13 00:02:16;;;;;;;5.70;4.82;;;;;;;20.40;77.08;97925.94;5016739;28;20081;-78
2021/06/13 00:04:41;;;;;;;6.03;4.60;;;;;;;20.38;76.80;97919.94;5017610;28;20096;-79
2021/06/13 00:07:06;;;;;;;5.38;4.82;;;;;;;20.40;75.67;97917.59;5012363;28;20018;-78
2021/06/13 00:09:32;;;;;;;5.65;4.22;;;;;;;20.42;75.41;97918.06;5010597;28;20100;-78
2021/06/13 00:11:57;;;;;;;5.95;4.40;;;;;;;20.40;75.35;97923.97;5010278;28;20030;-77
2021/06/13 00:14:23;;;;;;;4.72;4.05;;;;;;;20.36;74.83;97925.06;4993752;28;20103;-79
2021/06/13 00:16:49;;;;;;;10.23;4.65;;;;;;;20.37;74.60;97935.00;4993046;28;20026;-76
2021/06/13 00:19:15;;;;;;;6.80;4.72;;;;;;;20.28;75.82;97936.00;4994179;28;20487;-77
2021/06/13 00:21:41;;;;;;;9.35;5.00;;;;;;;20.19;76.80;97932.56;5012127;28;20038;-79
2021/06/13 00:24:07;;;;;;;7.35;5.00;;;;;;;20.15;77.18;97937.22;5011546;28;20506;-77
2021/06/13 00:26:32;;;;;;;4.80;4.28;;;;;;;20.07;77.76;97940.97;5011505;28;20022;-78
2021/06/13 00:28:58;;;;;;;5.88;4.38;;;;;;;20.07;78.00;97932.66;5011351;28;20418;-77
2021/06/13 00:31:23;;;;;;;9.05;4.47;;;;;;;20.03;77.68;97934.53;5011477;28;20104;-77
2021/06/13 00:33:50;;;;;;;4.72;4.20;;;;;;;20.02;77.73;97938.44;5011362;28;20029;-78
2021/06/13 00:36:15;;;;;;;5.03;4.35;;;;;;;20.04;77.43;97941.69;4993778;28;20387;-79
2021/06/13 00:38:41;;;;;;;8.73;3.85;;;;;;;20.09;77.70;97941.41;5011068;28;20036;-77
2021/06/13 00:41:09;;;;;;;4.93;4.18;;;;;;;19.97;77.67;97927.63;5011313;28;20514;-78
2021/06/13 00:43:34;;;;;;;8.80;4.60;;;;;;;19.91;77.77;97931.81;5007901;28;20033;-79
2021/06/13 00:46:00;;;;;;;4.78;4.05;;;;;;;19.82;77.80;97925.66;4992004;28;20388;-78
2021/06/13 00:48:25;;;;;;;5.07;4.35;;;;;;;19.89;77.50;97931.34;5010833;28;20049;-80
2021/06/13 00:50:54;;;;;;;5.18;4.18;;;;;;;19.86;77.96;97940.41;5011417;28;20030;-80
2021/06/13 00:53:20;;;;;;;9.00;5.07;;;;;;;19.80;77.69;97936.28;5011813;28;20088;-80
2021/06/13 00:55:46;;;;;;;6.60;5.25;;;;;;;19.67;78.35;97938.31;5011457;28;20026;-80
2021/06/13 00:58:11;;;;;;;6.50;5.05;;;;;;;19.58;80.94;97934.88;5011206;28;20034;-82
2021/06/13 01:00:38;;;;;;;11.40;5.85;;;;;;;19.53;83.56;97935.16;5011138;28;20021;-81
2021/06/13 01:03:05;;;;;;;12.13;7.35;;;;;;;19.43;85.46;97940.41;5011363;28;20032;-80
2021/06/13 01:05:31;;;;;;;8.30;5.88;;;;;;;19.37;86.18;97948.16;5011580;28;20518;-79
2021/06/13 01:08:13;;;;;;;14.02;6.07;;;;;;;19.33;86.71;97938.13;5009565;28;20057;-81
2021/06/13 01:10:53;;;;;;;9.30;5.78;;;;;;;19.27;87.50;97946.69;5009684;28;20040;-80
2021/06/13 01:13:41;;;;;;;6.10;5.50;;;;;;;19.31;87.58;97951.53;5011303;28;20488;-79
2021/06/13 01:16:19;;;;;;;10.90;5.82;;;;;;;19.13;88.92;97957.38;5010586;28;20060;-79
2021/06/13 01:19:02;;;;;;;9.43;6.70;;;;;;;19.18;88.62;97953.53;5010053;28;20061;-82
2021/06/13 01:21:40;;;;;;;10.98;6.68;;;;;;;19.12;89.46;97957.72;5010759;28;20484;-79
2021/06/13 01:24:33;;;;;;;12.00;6.88;;;;;;;19.08;89.80;97960.38;4992758;28;20487;-79
2021/06/13 01:27:14;;;;;;;10.40;6.20;;;;;;;19.10;89.86;97957.25;5009865;28;20033;-80
2021/06/13 01:29:43;;;;;;;8.18;6.35;;;;;;;19.10;89.81;97954.47;5010492;28;20026;-82
2021/06/13 01:32:21;;;;;;;11.60;6.05;;;;;;;19.08;89.80;97949.28;5011015;28;20029;-82
2021/06/13 01:35:16;;;;;;;9.93;6.68;;;;;;;19.10;89.70;97963.63;4993625;28;20033;-81
2021/06/13 01:37:48;;;;;;;8.77;6.70;;;;;;;19.10;90.04;97966.38;4991544;28;20578;-82
2021/06/13 01:40:16;;;;;;;10.60;6.38;;;;;;;19.16;88.84;97956.66;5011788;28;20029;-82
2021/06/13 01:42:46;;;;;;;8.85;5.82;;;;;;;19.10;89.13;97946.97;4993998;28;20042;-81
2021/06/13 01:45:17;;;;;;;7.63;6.05;;;;;;;19.04;89.98;97942.03;4993564;28;20431;-80
2021/06/13 01:47:43;;;;;;;11.00;6.50;;;;;;;19.12;89.04;97950.19;4992879;28;20443;-83
2021/06/13 01:50:10;;;;;;;16.95;8.25;;;;;;;19.15;88.67;97949.50;5010900;28;20474;-83
2021/06/13 01:52:38;;;;;;;10.60;6.50;;;;;;;19.11;88.57;97947.75;5011574;28;20064;-82
2021/06/13 01:55:05;;;;;;;6.68;5.88;;;;;;;19.20;88.47;97940.91;5010794;28;20471;-81
2021/06/13 01:57:32;;;;;;;6.53;5.75;;;;;;;19.30;87.69;97933.25;5010959;28;20030;-80
2021/06/13 01:59:59;;;;;;;8.70;5.32;;;;;;;19.29;88.01;97937.22;5009601;28;20372;-82
2021/06/13 02:02:26;;;;;;;7.50;5.72;;;;;;;19.23;88.46;97933.88;5010961;28;20034;-82
2021/06/13 02:04:52;;;;;;;6.63;5.20;;;;;;;19.35;87.71;97933.84;4994019;28;20046;-84
2021/06/13 02:07:20;;;;;;;11.07;5.85;;;;;;;19.43;87.01;97932.06;5017938;28;20034;-83
2021/06/13 02:09:47;;;;;;;10.43;5.97;;;;;;;19.40;87.16;97928.03;5018561;28;20029;-81
2021/06/13 02:12:14;;;;;;;9.25;5.30;;;;;;;19.36;87.58;97920.78;5020679;28;20033;-81
2021/06/13 02:14:43;;;;;;;6.22;5.45;;;;;;;19.39;87.35;97931.16;5002231;28;20064;-81
2021/06/13 02:17:09;;;;;;;7.82;5.55;;;;;;;19.35;87.21;97914.41;4998880;28;20022;-84
2021/06/13 02:19:36;;;;;;;7.28;5.50;;;;;;;19.38;87.29;97932.31;5015120;28;20175;-84
2021/06/13 02:22:03;;;;;;;6.32;5.72;;;;;;;19.34;87.53;97928.63;5010911;28;20057;-85
2021/06/13 02:24:32;;;;;;;10.95;6.13;;;;;;;19.42;87.15;97944.34;5018055;28;20541;-80
2021/06/13 02:26:59;;;;;;;12.65;6.13;;;;;;;19.45;87.20;97940.88;5013808;28;20049;-81
2021/06/13 02:29:26;;;;;;;10.27;5.65;;;;;;;19.39;87.66;97947.81;5013649;28;20025;-81
2021/06/13 02:31:54;;;;;;;7.93;5.40;;;;;;;19.24;88.04;97939.06;5012720;28;20033;-78
2021/06/13 02:34:23;;;;;;;7.35;6.15;;;;;;;19.18;88.90;97943.25;5014383;28;20026;-82
2021/06/13 02:36:50;;;;;;;7.07;5.00;;;;;;;19.19;88.95;97942.09;4996794;28;20033;-83
2021/06/13 02:39:17;;;;;;;7.53;5.70;;;;;;;19.13;89.18;97951.00;5014122;28;20398;-81
2021/06/13 02:41:42;;;;;;;12.77;6.95;;;;;;;19.01;89.68;97942.72;4996640;28;20498;-84
2021/06/13 02:44:08;;;;;;;10.00;4.97;;;;;;;19.04;89.92;97942.84;4996460;28;20022;-84
2021/06/13 02:46:33;;;;;;;5.72;5.22;;;;;;;19.04;89.83;97934.53;4996953;28;20116;-84
2021/06/13 02:48:59;;;;;;;7.47;6.10;;;;;;;19.15;89.22;97932.84;5013829;28;20439;-81
2021/06/13 02:51:32;;;;;;;5.93;5.30;;;;;;;19.20;88.91;97929.81;4996513;28;20104;-80
2021/06/13 02:54:00;;;;;;;7.93;6.30;;;;;;;19.21;88.95;97942.53;4996293;28;20112;-81
2021/06/13 02:56:39;;;;;;;8.85;6.05;;;;;;;19.20;88.94;97962.31;5013799;28;20029;-80
2021/06/13 02:59:23;;;;;;;7.43;5.63;;;;;;;19.12;90.02;97966.03;5013129;28;20029;-80
2021/06/13 03:01:51;;;;;;;7.43;6.22;;;;;;;18.98;90.67;97965.63;5013219;28;20044;-82
2021/06/13 03:04:17;;;;;;;9.20;7.45;;;;;;;19.06;90.80;97973.78;4995627;28;20032;-82
2021/06/13 03:06:46;;;;;;;10.15;6.20;;;;;;;19.08;90.79;97977.00;5013076;28;20030;-82
2021/06/13 03:09:11;;;;;;;9.00;6.43;;;;;;;18.98;90.72;97960.84;5012468;28;20026;-81
2021/06/13 03:11:38;;;;;;;12.07;5.90;;;;;;;19.08;90.27;97957.59;5012928;28;20688;-82
2021/06/13 03:14:06;;;;;;;5.72;5.20;;;;;;;19.01;90.72;97962.94;5013070;28;20475;-82
2021/06/13 03:16:32;;;;;;;7.50;6.20;;;;;;;18.93;91.07;97955.56;5000183;28;20040;-82
2021/06/13 03:18:58;;;;;;;8.05;6.00;;;;;;;18.94;91.13;97951.63;5011985;28;20113;-82
2021/06/13 03:21:25;;;;;;;8.00;5.68;;;;;;;19.03;90.86;97954.25;5003015;28;20090;-80
2021/06/13 03:23:51;;;;;;;9.35;5.72;;;;;;;19.07;90.49;97953.22;4976354;28;20032;-83
2021/06/13 03:26:17;;;;;;;11.30;6.13;;;;;;;19.03;90.62;97959.81;4993673;28;20034;-82
2021/06/13 03:28:44;;;;;;;14.82;6.05;;;;;;;18.95;91.08;97947.69;4977302;28;20097;-82
2021/06/13 03:31:12;;;;;;;7.80;6.53;;;;;;;18.97;91.30;97964.78;4994610;28;20034;-82
2021/06/13 03:33:39;;;;;;;11.45;5.50;;;;;;;19.05;90.52;97966.63;5004528;28;20038;-82
2021/06/13 03:36:06;;;;;;;8.35;6.50;;;;;;;18.90;91.27;97956.25;5013400;28;20054;-80
2021/06/13 03:38:32;;;;;;;10.85;6.28;;;;;;;18.78;91.70;97953.50;5012399;28;20030;-79
2021/06/13 03:40:58;;;;;;;9.30;5.68;;;;;;;18.83;91.91;97950.50;4994561;28;20113;-78
2021/06/13 03:43:25;;;;;;;8.48;6.70;;;;;;;18.99;91.06;97973.56;4994515;28;20026;-80
2021/06/13 03:45:51;;;;;;;8.75;6.18;;;;;;;18.88;91.72;97977.19;5011887;28;20037;-79
2021/06/13 03:48:19;;;;;;;11.05;7.22;;;;;;;18.81;92.63;97971.41;5011405;28;20049;-80
2021/06/13 03:50:46;;;;;;;9.77;6.22;;;;;;;18.86;92.15;97966.41;5011898;28;20080;-80
2021/06/13 03:53:13;;;;;;;8.60;5.50;;;;;;;18.92;92.29;97967.00;5012404;28;20549;-80
2021/06/13 03:55:39;;;;;;;7.68;6.45;;;;;;;18.99;91.73;97965.25;5012304;28;20041;-81
2021/06/13 03:58:06;;;;;;;10.65;6.18;;;;;;;18.82;91.98;97957.22;5011998;28;20033;-81
2021/06/13 04:00:33;;;;;;;7.38;5.80;;;;;;;18.88;92.04;97974.41;5012060;28;20026;-79
2021/06/13 04:03:00;;;;;;;10.23;5.85;;;;;;;18.92;91.47;97970.56;5010864;28;20058;-80
2021/06/13 04:05:26;;;;;;;7.70;6.00;;;;;;;18.88;91.48;97972.44;4993935;28;20048;-79
2021/06/13 04:07:52;;;;;;;9.50;6.75;;;;;;;18.84;91.86;97987.34;5011621;28;20037;-78
2021/06/13 04:10:19;;;;;;;7.32;6.60;;;;;;;18.77;92.37;97990.69;4999909;28;20038;-79
2021/06/13 04:12:49;;;;;;;9.13;6.60;;;;;;;18.81;92.67;98013.78;4991070;28;20072;-81
2021/06/13 04:15:15;;;;;;;9.25;6.10;;;;;;;18.70;92.93;98007.13;4974711;28;20037;-81
2021/06/13 04:17:42;;;;;;;7.40;6.32;;;;;;;18.67;93.15;98016.91;4993470;28;20030;-83
2021/06/13 04:20:10;;;;;;;7.60;6.43;;;;;;;18.70;93.07;98029.28;4988772;28;20034;-86
2021/06/13 04:22:38;;;;;;;13.30;6.47;;;;;;;18.73;92.84;98039.69;4997594;28;20030;-82
2021/06/13 04:25:06;;;;;;;8.00;6.13;;;;;;;18.80;92.06;98026.03;4992756;28;20030;-82
2021/06/13 04:27:35;;;;;;;8.13;6.50;;;;;;;18.92;91.80;98042.66;4991709;28;20093;-79
2021/06/13 04:30:01;;;;;;;9.98;6.07;;;;;;;19.05;91.03;98044.25;4991857;28;20378;-82
2021/06/13 04:32:27;;;;;;;7.15;6.22;;;;;;;19.06;90.84;98029.25;4992681;28;20060;-82
2021/06/13 04:34:52;;;;;;;7.55;6.00;;;;;;;19.10;90.17;98041.25;4977546;28;20121;-82
2021/06/13 04:37:18;;;;;;;8.13;5.72;;;;;;;19.08;90.17;98031.66;4980501;28;20052;-86
2021/06/13 04:39:44;;;;;;;6.72;5.53;;;;;;;19.03;89.97;98037.44;4991437;28;20504;-81
2021/06/13 04:42:10;;;;;;;7.43;6.15;;;;;;;18.97;90.62;98036.88;4991718;28;20405;-81
2021/06/13 04:44:37;;;;;;;9.73;6.47;;;;;;;18.92;90.56;98037.09;4974991;28;20018;-86
2021/06/13 04:47:03;;;;;;;7.10;5.45;;;;;;;18.97;89.49;98041.63;4973938;28;20042;-82
2021/06/13 04:49:29;;;;;;;6.40;4.95;;;;;;;19.07;88.51;98047.50;4973605;28;20034;-74
2021/06/13 04:51:58;;;;;;;6.95;5.88;;;;;;;19.07;87.82;98064.16;4974482;28;20088;-76
2021/06/13 04:54:29;;;;;;;9.80;6.22;;;;;;;19.09;87.62;98061.00;4973790;28;20030;-78
2021/06/13 04:57:03;;;;;;;8.45;5.90;;;;;;;19.19;87.61;98069.69;4990313;28;20030;-78
2021/06/13 04:59:29;;;;;;;8.32;5.30;;;;;;;19.21;87.05;98063.75;4991086;28;20525;-76
2021/06/13 05:01:54;;;;;;;7.07;5.63;;;;;;;19.39;86.48;98075.44;4973366;28;20026;-79
2021/06/13 05:04:19;;;;;;;6.00;5.35;;;;;;;19.44;85.35;98078.78;4989599;28;20026;-78
2021/06/13 05:06:45;;;;;;;11.50;5.88;;;;;;;19.57;84.71;98077.63;4991186;28;20133;-80
2021/06/13 05:09:12;;;;;;;8.60;5.50;;;;;;;19.71;83.86;98088.31;4975894;28;20029;-79
2021/06/13 05:11:37;;;;;;;8.90;5.10;;;;;;;19.81;82.29;98082.28;5010967;28;20018;-80
2021/06/13 05:14:05;;;;;;;7.40;5.45;;;;;;;19.84;81.95;98084.34;5010956;28;20084;-82
2021/06/13 05:16:30;;;;;;;8.63;5.88;;;;;;;20.00;80.78;98081.63;5011314;28;20061;-81
2021/06/13 05:18:55;;;;;;;6.10;5.50;;;;;;;20.09;79.66;98080.31;5011546;28;20113;-81
2021/06/13 05:21:21;;;;;;;7.63;4.95;;;;;;;20.30;79.11;98082.88;4996936;28;20482;-83
2021/06/13 05:23:46;;;;;;;6.05;5.15;;;;;;;20.35;78.51;98107.66;4994375;28;20478;-79
2021/06/13 05:26:12;;;;;;;9.07;6.28;;;;;;;20.55;77.61;98114.94;5015611;28;20030;-81
2021/06/13 05:28:38;;;;;;;7.22;5.45;;;;;;;20.93;76.57;98133.78;4997847;28;20037;-80
2021/06/13 05:31:03;;;;;;;9.52;5.63;;;;;;;21.17;75.62;98125.31;4998844;28;20478;-80
2021/06/13 05:33:29;;;;;;;6.47;5.65;;;;;;;21.51;74.26;98140.44;4993347;28;20080;-79
2021/06/13 05:35:54;;;;;;;6.32;4.90;;;;;;;22.06;72.58;98142.06;5010244;28;20026;-79
2021/06/13 05:38:20;;;;;;;10.15;7.28;;;;;;;22.33;71.11;98154.97;5010284;28;20037;-79
2021/06/13 05:40:48;;;;;;;5.82;5.00;;;;;;;22.64;69.64;98153.19;4992842;28;20037;-77
2021/06/13 05:43:14;;;;;;;7.68;5.53;;;;;;;23.12;67.42;98160.09;4993344;28;20029;-79
2021/06/13 05:45:41;;;;;;;5.72;5.15;;;;;;;22.75;67.47;98168.16;5012249;28;20516;-77
2021/06/13 05:48:07;;;;;;;7.82;4.47;;;;;;;22.69;67.16;98178.84;5014407;28;20050;-74
2021/06/13 05:50:33;;;;;;;19.83;14.77;;;;;;;22.43;68.35;98173.91;5014363;28;20033;-73
2021/06/13 05:53:00;;;;;;;5.47;4.88;;;;;;;22.52;67.67;98175.69;5014257;28;20108;-74
2021/06/13 05:55:26;;;;;;;8.75;5.20;;;;;;;22.82;67.35;98174.72;4996520;28;20030;-75
2021/06/13 05:57:52;;;;;;;5.45;4.95;;;;;;;22.34;68.43;98181.69;5013526;28;20077;-74
2021/06/13 06:00:31;;;;;;;8.30;5.07;;;;;;;22.55;68.73;98181.34;5013411;28;20030;-79
2021/06/13 06:02:57;;;;;;;7.40;4.72;;;;;;;22.50;68.79;98189.16;4996045;28;20038;-74
2021/06/13 06:05:24;;;;;;;5.43;4.18;;;;;;;21.90;70.77;98193.47;5013767;28;20033;-76
2021/06/13 06:07:51;;;;;;;6.43;3.97;;;;;;;21.93;70.47;98190.75;4996226;28;20026;-76
2021/06/13 06:10:17;;;;;;;4.40;3.85;;;;;;;21.79;70.07;98198.75;5013554;28;20065;-75
2021/06/13 06:12:43;;;;;;;5.88;3.63;;;;;;;21.32;71.76;98198.81;5013873;28;20501;-76
2021/06/13 06:15:12;;;;;;;5.43;3.78;;;;;;;21.00;73.01;98220.22;5013721;28;20033;-75
2021/06/13 06:17:38;;;;;;;4.10;3.70;;;;;;;20.72;74.50;98200.81;5013686;28;20390;-75
2021/06/13 06:20:04;;;;;;;4.40;3.85;;;;;;;20.65;74.74;98210.91;4995938;28;20030;-76
2021/06/13 06:22:30;;;;;;;5.68;5.13;;;;;;;20.93;74.25;98210.88;4996354;28;20041;-75
2021/06/13 06:24:55;;;;;;;6.68;4.95;;;;;;;21.20;72.71;98198.91;5012614;28;20035;-79
2021/06/13 06:27:21;;;;;;;6.18;4.13;;;;;;;21.36;71.69;98203.28;5013800;28;20029;-83
2021/06/13 06:29:46;;;;;;;5.43;3.92;;;;;;;21.51;71.23;98225.94;5013373;28;20018;-73
2021/06/13 06:32:12;;;;;;;4.32;3.92;;;;;;;21.52;71.05;98222.00;5013369;28;20026;-73
2021/06/13 06:34:37;;;;;;;5.97;3.63;;;;;;;21.56;71.02;98232.03;5013446;28;20029;-73
2021/06/13 06:37:03;;;;;;;4.90;3.90;;;;;;;21.83;69.79;98238.66;4995637;28;20030;-73
2021/06/13 06:39:29;;;;;;;6.57;3.95;;;;;;;21.85;69.65;98245.47;5013142;28;20034;-75
2021/06/13 06:41:54;;;;;;;4.07;3.65;;;;;;;21.60;70.15;98237.69;4995085;28;20390;-74
2021/06/13 06:44:21;;;;;;;4.45;3.33;;;;;;;21.53;69.89;98241.09;4995366;28;20029;-75
2021/06/13 06:46:46;;;;;;;5.65;3.55;;;;;;;21.75;69.72;98253.56;5011533;28;20081;-74
2021/06/13 06:49:12;;;;;;;3.72;3.15;;;;;;;21.86;68.58;98243.50;5013050;28;20084;-74
2021/06/13 06:51:37;;;;;;;4.20;3.15;;;;;;;21.60;68.83;98258.00;5013091;28;20490;-74
2021/06/13 06:54:04;;;;;;;5.90;3.03;;;;;;;21.75;69.18;98259.13;5013424;28;20065;-73
2021/06/13 06:56:29;;;;;;;9.98;3.85;;;;;;;22.01;67.69;98259.41;5011203;28;20490;-74
2021/06/13 06:58:56;;;;;;;4.55;3.60;;;;;;;22.24;66.75;98265.88;4995185;28;20034;-77
2021/06/13 07:01:27;;;;;;;3.28;2.78;;;;;;;22.52;65.09;98253.75;5018578;28;20089;-85
2021/06/13 07:03:52;;;;;;;3.47;2.95;;;;;;;22.27;66.23;98264.38;5005737;28;20116;-84
2021/06/13 07:06:18;;;;;;;5.18;2.45;;;;;;;22.19;66.61;98265.38;4999281;28;20121;-83
2021/06/13 07:08:44;;;;;;;2.35;2.15;;;;;;;21.77;68.23;98248.47;5009750;28;20478;-82
2021/06/13 07:11:09;;;;;;;2.75;2.55;;;;;;;22.02;66.97;98272.16;4996293;28;20092;-79
2021/06/13 07:13:35;;;;;;;5.60;2.55;;;;;;;21.80;68.38;98261.66;4994048;28;20034;-83
2021/06/13 07:16:01;;;;;;;3.33;2.80;;;;;;;21.61;67.81;98265.19;4993782;28;20084;-80
2021/06/13 07:18:27;;;;;;;3.75;2.60;;;;;;;21.65;67.43;98260.50;5006128;28;20030;-81
2021/06/13 07:20:53;;;;;;;4.43;3.05;;;;;;;21.44;68.75;98270.28;4992431;28;20053;-81
2021/06/13 07:23:18;;;;;;;3.40;2.53;;;;;;;21.29;69.14;98264.38;5002515;28;20080;-80
2021/06/13 07:25:44;;;;;;;3.22;2.92;;;;;;;21.49;68.78;98259.69;4996016;28;20034;-80
2021/06/13 07:28:09;;;;;;;6.68;3.03;;;;;;;21.70;67.91;98276.13;5014022;28;20017;-79
2021/06/13 07:30:35;;;;;;;6.28;4.63;;;;;;;22.09;66.57;98265.94;5013467;28;20416;-83
2021/06/13 07:33:04;;;;;;;3.95;2.95;;;;;;;22.38;65.75;98279.34;4995695;28;20032;-81
2021/06/13 07:35:30;;;;;;;2.50;2.30;;;;;;;22.25;65.07;98284.25;5006529;28;20030;-78
2021/06/13 07:37:56;;;;;;;3.25;2.47;;;;;;;22.10;64.26;98299.03;4997993;28;20033;-83
2021/06/13 07:40:22;;;;;;;2.95;2.65;;;;;;;21.66;66.44;98289.97;4979619;28;20109;-83
2021/06/13 07:42:49;;;;;;;6.80;3.00;;;;;;;21.77;66.01;98290.25;4994225;28;20023;-79
2021/06/13 07:45:15;;;;;;;4.10;3.28;;;;;;;21.61;66.32;98287.47;4996066;28;20030;-80
2021/06/13 07:47:42;;;;;;;5.13;4.63;;;;;;;21.60;66.01;98282.22;5005173;28;21533;-79
2021/06/13 07:50:10;;;;;;;4.22;3.20;;;;;;;21.97;65.97;98294.72;5000683;28;20550;-81
2021/06/13 07:52:36;;;;;;;2.88;2.47;;;;;;;21.87;65.80;98293.25;4983047;28;20041;-79
2021/06/13 07:55:04;;;;;;;7.60;3.20;;;;;;;21.97;65.79;98282.78;5000712;28;20490;-82
2021/06/13 07:57:30;;;;;;;5.50;3.30;;;;;;;22.26;64.89;98283.06;5003798;28;20018;-79
2021/06/13 07:59:56;;;;;;;4.55;3.40;;;;;;;22.52;63.58;98282.47;5004319;28;20037;-81
2021/06/13 08:02:21;;;;;;;3.95;3.28;;;;;;;22.32;64.35;98295.56;5001806;28;20026;-75
2021/06/13 08:04:52;;;;;;;3.75;3.17;;;;;;;22.30;64.77;98292.31;5002014;28;20081;-78
2021/06/13 08:07:17;;;;;;;3.88;2.78;;;;;;;22.35;65.14;98299.59;4975596;28;20121;-80
2021/06/13 08:09:43;;;;;;;5.75;3.58;;;;;;;21.98;65.22;98293.56;4992717;28;20113;-80
2021/06/13 08:12:09;;;;;;;5.40;3.20;;;;;;;21.67;67.11;98280.44;5008664;28;20489;-85
2021/06/13 08:14:34;;;;;;;5.72;3.17;;;;;;;21.81;67.27;98291.13;5011527;28;20030;-77
2021/06/13 08:17:00;;;;;;;4.68;3.67;;;;;;;22.07;66.28;98294.19;5011782;28;20084;-82
2021/06/13 08:19:25;;;;;;;5.25;3.92;;;;;;;21.27;68.74;98293.69;5012612;28;20028;-81
2021/06/13 08:21:51;;;;;;;7.43;3.20;;;;;;;21.30;69.47;98296.56;5012662;28;20037;-84
2021/06/13 08:24:17;;;;;;;3.30;3.00;;;;;;;21.18;69.52;98301.41;4999625;28;20061;-78
2021/06/13 08:26:42;;;;;;;4.70;3.47;;;;;;;21.09;69.49;98301.56;4992425;28;20026;-80
2021/06/13 08:29:08;;;;;;;4.07;3.35;;;;;;;20.86;70.63;98306.06;4992308;28;20030;-76
2021/06/13 08:31:33;;;;;;;3.90;3.60;;;;;;;20.43;71.77;98304.00;4992199;28;20030;-84
2021/06/13 08:33:59;;;;;;;5.65;3.25;;;;;;;20.44;72.92;98313.97;4992561;28;20042;-76
2021/06/13 08:36:24;;;;;;;6.03;3.70;;;;;;;20.58;72.53;98305.25;4991370;28;20029;-78
2021/06/13 08:38:52;;;;;;;4.07;3.67;;;;;;;20.97;70.97;98320.25;4994745;28;20386;-77
2021/06/13 08:41:18;;;;;;;8.00;3.72;;;;;;;20.92;70.89;98317.75;5000455;28;20029;-84
2021/06/13 08:43:48;;;;;;;4.32;3.00;;;;;;;21.04;69.95;98323.25;5003406;28;20037;-83
2021/06/13 08:46:15;;;;;;;5.82;3.70;;;;;;;20.92;70.24;98310.22;4976986;28;20030;-77
2021/06/13 08:48:44;;;;;;;3.90;3.55;;;;;;;20.88;70.38;98320.41;5000491;28;20095;-81
2021/06/13 08:51:10;;;;;;;3.60;3.22;;;;;;;20.72;71.20;98309.25;4999459;28;20018;-79
2021/06/13 08:53:36;;;;;;;3.90;3.30;;;;;;;21.14;69.87;98306.09;5005014;28;20057;-82
2021/06/13 08:56:02;;;;;;;5.38;3.55;;;;;;;21.50;68.39;98310.59;5004562;28;20121;-81
2021/06/13 08:58:27;;;;;;;4.72;4.15;;;;;;;21.88;67.29;98310.78;4998574;28;20487;-82
2021/06/13 09:00:53;;;;;;;4.13;3.72;;;;;;;21.68;67.45;98309.09;5003533;28;20038;-82
2021/06/13 09:03:19;;;;;;;4.35;3.47;;;;;;;21.26;69.03;98301.25;4998743;28;20046;-77
2021/06/13 09:05:45;;;;;;;5.90;4.07;;;;;;;21.38;68.40;98317.06;4999269;28;20120;-76
2021/06/13 09:08:14;;;;;;;4.53;3.33;;;;;;;20.86;70.69;98308.84;4997597;28;20023;-78
2021/06/13 09:10:42;;;;;;;4.43;3.50;;;;;;;21.15;69.87;98313.25;4982567;28;20032;-80
2021/06/13 09:13:37;;;;;;;4.40;3.70;;;;;;;21.42;68.09;98317.16;4996316;28;20506;-75
2021/06/13 09:16:06;;;;;;;7.72;3.83;;;;;;;21.11;69.50;98302.00;4994834;28;20046;-76
2021/06/13 09:18:35;;;;;;;4.22;3.80;;;;;;;21.41;68.67;98321.91;4978777;28;20030;-75
2021/06/13 09:21:02;;;;;;;4.35;3.95;;;;;;;20.83;70.53;98324.25;4989469;28;20436;-74
2021/06/13 09:23:29;;;;;;;6.65;3.58;;;;;;;20.86;69.88;98311.63;4990921;28;20039;-80
2021/06/13 09:26:04;;;;;;;6.38;3.75;;;;;;;21.39;68.71;98329.84;4993436;28;20037;-77
2021/06/13 09:28:38;;;;;;;4.18;3.78;;;;;;;21.80;66.81;98318.16;5001679;28;20068;-78
2021/06/13 09:31:05;;;;;;;3.78;2.85;;;;;;;23.64;61.14;98326.97;5001871;28;20036;-83
2021/06/13 09:33:33;;;;;;;4.82;3.83;;;;;;;23.30;60.11;98323.94;5003886;28;20544;-75
2021/06/13 09:36:01;;;;;;;4.55;3.60;;;;;;;22.64;62.90;98320.56;4996966;28;20037;-79
2021/06/13 09:38:42;;;;;;;5.38;3.80;;;;;;;21.98;64.81;98315.84;4997197;28;20577;-75
2021/06/13 09:41:11;;;;;;;5.38;3.38;;;;;;;22.28;64.17;98314.19;4993406;28;20910;-80
2021/06/13 09:43:42;;;;;;;4.28;3.40;;;;;;;22.94;61.12;98319.63;4991516;28;20026;-81
2021/06/13 09:46:13;;;;;;;3.80;3.00;;;;;;;23.51;60.09;98322.75;4989644;28;20026;-75
2021/06/13 09:48:43;;;;;;;4.47;3.03;;;;;;;23.95;57.27;98315.53;4992147;28;20047;-74
2021/06/13 09:51:33;;;;;;;5.80;3.25;;;;;;;24.27;56.66;98318.88;4981650;28;20022;-74
2021/06/13 09:54:00;;;;;;;7.00;2.85;;;;;;;23.69;58.62;98318.28;4983589;28;20116;-75
2021/06/13 09:56:30;;;;;;;4.70;3.63;;;;;;;23.39;59.54;98310.59;4997474;28;20569;-76
2021/06/13 09:59:10;;;;;;;3.70;3.13;;;;;;;24.04;57.22;98299.31;4999235;28;20084;-78
2021/06/13 10:01:40;;;;;;;3.58;3.28;;;;;;;23.89;57.25;98308.66;4997536;28;20022;-74
2021/06/13 10:04:08;;;;;;;5.38;2.78;;;;;;;23.66;58.15;98299.47;4999619;28;20117;-75
2021/06/13 10:06:36;;;;;;;3.33;2.97;;;;;;;23.45;58.66;98305.50;4996821;28;20092;-74
2021/06/13 10:09:07;;;;;;;4.70;3.15;;;;;;;22.69;59.99;98297.97;5000620;28;20034;-77
2021/06/13 10:11:36;;;;;;;3.60;3.00;;;;;;;22.50;62.28;98295.13;4997042;28;20095;-74
2021/06/13 10:14:05;;;;;;;3.33;2.95;;;;;;;22.47;62.00;98295.84;4997849;28;20019;-76
2021/06/13 10:16:31;;;;;;;3.63;3.13;;;;;;;23.10;60.46;98305.59;4996671;28;20037;-77
2021/06/13 10:18:59;;;;;;;3.75;2.70;;;;;;;24.14;57.20;98315.47;5000348;28;20029;-81
2021/06/13 10:21:26;;;;;;;4.03;3.03;;;;;;;23.57;57.33;98318.47;4992542;28;20019;-78
2021/06/13 10:23:53;;;;;;;5.30;3.30;;;;;;;22.76;60.92;98300.91;4986423;28;20391;-79
2021/06/13 10:26:18;;;;;;;2.83;2.58;;;;;;;22.64;61.34;98317.75;5002601;28;20022;-83
2021/06/13 10:28:46;;;;;;;5.18;2.30;;;;;;;21.92;63.88;98303.38;5008157;28;20124;-84
2021/06/13 10:31:11;;;;;;;3.13;2.83;;;;;;;22.06;63.38;98309.28;5009317;28;20094;-81
2021/06/13 10:33:39;;;;;;;3.35;2.80;;;;;;;22.27;62.38;98315.34;5013065;28;20444;-87
2021/06/13 10:36:05;;;;;;;3.60;3.00;;;;;;;22.92;61.25;98310.03;5013570;28;20112;-87
2021/06/13 10:38:31;;;;;;;3.28;2.70;;;;;;;23.29;59.58;98308.38;5012769;28;20073;-86
2021/06/13 10:40:58;;;;;;;4.90;3.42;;;;;;;22.99;60.32;98306.56;5008159;28;20029;-88
2021/06/13 10:43:26;;;;;;;4.60;3.17;;;;;;;22.52;61.45;98299.19;5020002;28;20033;-88
2021/06/13 10:45:53;;;;;;;3.08;2.50;;;;;;;22.70;60.93;98294.00;5015177;28;20034;-84
2021/06/13 10:48:19;;;;;;;3.08;2.72;;;;;;;22.68;60.90;98293.59;5011581;28;20038;-83
2021/06/13 10:50:45;;;;;;;4.93;2.97;;;;;;;22.55;61.19;98278.94;5002387;28;20088;-81
2021/06/13 10:53:11;;;;;;;3.05;2.67;;;;;;;22.59;61.58;98276.19;5009517;28;20153;-79
2021/06/13 10:56:04;;;;;;;2.58;2.17;;;;;;;22.81;60.20;98283.88;5003234;28;20113;-85
2021/06/13 10:58:48;;;;;;;5.28;3.17;;;;;;;22.94;59.74;98280.56;4999527;28;20045;-84
2021/06/13 11:01:27;;;;;;;5.28;2.72;;;;;;;22.83;59.31;98276.78;5003260;28;20108;-81
2021/06/13 11:03:58;;;;;;;3.00;2.72;;;;;;;23.22;58.29;98260.75;4986159;28;20026;-84
2021/06/13 11:06:47;;;;;;;2.95;2.63;;;;;;;22.85;59.34;98274.41;5001085;28;20100;-84
2021/06/13 11:09:17;;;;;;;3.33;2.70;;;;;;;22.91;58.69;98272.13;5000531;28;20037;-79
2021/06/13 11:11:44;;;;;;;4.65;2.80;;;;;;;22.81;58.99;98267.94;4998342;28;20537;-78
2021/06/13 11:14:23;;;;;;;3.75;2.80;;;;;;;23.05;57.82;98264.03;5001345;28;20023;-77
2021/06/13 11:16:48;;;;;;;4.72;3.42;;;;;;;23.36;57.32;98255.44;4977353;28;20040;-78
2021/06/13 11:19:30;;;;;;;6.65;4.53;;;;;;;23.07;58.68;98264.47;5008028;28;20038;-75
2021/06/13 11:22:18;;;;;;;8.63;5.00;;;;;;;22.67;60.24;98272.44;4994233;28;20026;-74
2021/06/13 11:24:53;;;;;;;4.15;3.00;;;;;;;23.02;59.09;98264.78;5003436;28;20057;-75
2021/06/13 11:27:18;;;;;;;4.18;3.20;;;;;;;23.35;57.81;98258.59;5001947;28;20030;-74
2021/06/13 11:29:51;;;;;;;5.22;2.85;;;;;;;23.69;57.03;98260.41;4982144;28;20112;-74
2021/06/13 11:32:53;;;;;;;2.53;2.33;;;;;;;23.87;56.48;98255.13;5002130;28;20018;-75
2021/06/13 11:35:51;;;;;;;3.65;3.35;;;;;;;23.91;56.59;98253.19;4998304;28;20030;-77
2021/06/13 11:38:17;;;;;;;12.95;3.15;;;;;;;23.87;56.67;98260.72;4987696;28;20046;-75